Orbital elements of SAUDISAT 5B
| Launched | 6 December 2018 |
| Flight ended | – |
| Launch site | Jiuquan Space Center, PRC |
| Owner | Saudi Arabia |
| NORAD ID | 43833 |
| Date fetched |
Epoch osculation |
Inc. [°] |
Ecc. | RA asc node [hr] |
Arg Peri. [°] |
Mean anom [°] |
Mean motion [rev/day] |
Abs. mag |
| Date fetched |
Epoch osculation |
Inc. [°] |
Ecc. | RA asc node [hr] |
Arg Peri. [°] |
Mean anom [°] |
Mean motion [rev/day] |
Abs. mag |
| 2026 May 08 17:57 | 2026 May 08 07:18:20 | 97.3192 | 0.00087 | 12.9105 | 278.2592 | 81.7659 | 15.27922 | – |
| 2026 May 07 17:58 | 2026 May 07 07:43:44 | 97.3191 | 0.00087 | 12.8462 | 282.5167 | 81.7659 | 15.27922 | – |
| 2026 May 06 17:57 | 2026 May 06 12:52:03 | 97.3192 | 0.00087 | 12.7948 | 285.8424 | 81.7659 | 15.27922 | – |
| 2026 May 05 17:57 | 2026 May 05 11:43:08 | 97.3193 | 0.00088 | 12.7261 | 290.1648 | 81.7659 | 15.27922 | – |
| 2026 May 04 17:57 | 2026 May 04 12:08:30 | 97.3196 | 0.00088 | 12.6618 | 294.3114 | 81.7659 | 15.27922 | – |
| 2026 May 03 17:57 | 2026 May 03 12:33:52 | 97.3199 | 0.00088 | 12.5975 | 298.4535 | 81.7659 | 15.27922 | – |
| 2026 May 02 17:57 | 2026 May 02 12:59:13 | 97.3201 | 0.00088 | 12.5331 | 302.6021 | 81.7659 | 15.27922 | – |
| 2026 May 01 17:56 | 2026 May 01 11:50:15 | 97.3204 | 0.00089 | 12.4645 | 306.9332 | 81.7659 | 15.27922 | – |
| 2026 Apr 30 17:56 | 2026 Apr 30 12:15:35 | 97.3207 | 0.00090 | 12.4002 | 310.9526 | 81.7659 | 15.27922 | – |
| 2026 Apr 29 17:57 | 2026 Apr 29 12:40:55 | 97.3208 | 0.00090 | 12.3359 | 315.0911 | 81.7659 | 15.27922 | – |
| 2026 Apr 28 17:56 | 2026 Apr 28 13:06:14 | 97.3209 | 0.00091 | 12.2715 | 319.0300 | 81.7659 | 15.27922 | – |
| 2026 Apr 27 17:58 | 2026 Apr 27 11:57:13 | 97.3210 | 0.00092 | 12.2029 | 323.1887 | 81.7659 | 15.27922 | – |
| 2026 Apr 26 17:58 | 2026 Apr 26 12:22:31 | 97.3209 | 0.00093 | 12.1386 | 327.1130 | 81.7659 | 15.27922 | – |
| 2026 Apr 25 17:58 | 2026 Apr 25 12:47:48 | 97.3209 | 0.00093 | 12.0743 | 331.0852 | 81.7659 | 15.27922 | – |
| 2026 Apr 24 17:59 | 2026 Apr 24 11:38:45 | 97.3208 | 0.00094 | 12.0056 | 335.1335 | 81.7659 | 15.27922 | – |
| 2026 Apr 23 17:57 | 2026 Apr 23 07:21:04 | 97.3206 | 0.00096 | 11.9284 | 339.6247 | 81.7659 | 15.27922 | – |
| 2026 Apr 22 17:57 | 2026 Apr 22 07:46:19 | 97.3207 | 0.00097 | 11.8641 | 343.4951 | 81.7659 | 15.27922 | – |
| 2026 Apr 21 17:57 | 2026 Apr 21 12:54:31 | 97.3208 | 0.00097 | 11.8126 | 346.4443 | 81.7659 | 15.27922 | – |
| 2026 Apr 20 17:57 | 2026 Apr 20 13:19:45 | 97.3209 | 0.00098 | 11.7483 | 350.0124 | 81.7659 | 15.27922 | – |
| 2026 Apr 19 17:58 | 2026 Apr 19 12:10:40 | 97.3212 | 0.00100 | 11.6797 | 353.8011 | 81.7659 | 15.27922 | – |
| 2026 Apr 18 17:56 | 2026 Apr 18 07:52:56 | 97.3216 | 0.00101 | 11.6025 | 358.0895 | 81.7659 | 15.27922 | – |
| 2026 Apr 16 17:57 | 2026 Apr 16 07:09:03 | 97.3222 | 0.00103 | 11.4695 | 5.4108 | 81.7659 | 15.27922 | – |
| 2026 Apr 14 17:57 | 2026 Apr 14 12:42:25 | 97.3225 | 0.00105 | 11.3537 | 11.5606 | 81.7659 | 15.27922 | – |
| 2026 Apr 13 17:57 | 2026 Apr 13 06:50:19 | 97.3226 | 0.00106 | 11.2722 | 15.8540 | 81.7659 | 15.27922 | – |
| 2026 Apr 12 17:57 | 2026 Apr 12 11:58:29 | 97.3227 | 0.00107 | 11.2207 | 18.5595 | 81.7659 | 15.27922 | – |
| 2026 Apr 11 17:57 | 2026 Apr 11 12:23:40 | 97.3226 | 0.00108 | 11.1564 | 22.0026 | 81.7659 | 15.27922 | – |